sensor_id;sensor_type;location;lat;lon;timestamp;temperature;humidity
24232;DHT22;12364;47.810;8.810;2022-07-23T04:31:16;23.50;99.60
24232;DHT22;12364;47.810;8.810;2022-07-23T04:33:43;23.60;99.30
24232;DHT22;12364;47.810;8.810;2022-07-23T04:36:10;23.70;98.90
24232;DHT22;12364;47.810;8.810;2022-07-23T04:38:37;23.80;99.40
24232;DHT22;12364;47.810;8.810;2022-07-23T04:41:04;23.90;99.40
24232;DHT22;12364;47.810;8.810;2022-07-23T04:43:31;23.90;99.00
24232;DHT22;12364;47.810;8.810;2022-07-23T04:45:58;23.90;99.10
24232;DHT22;12364;47.810;8.810;2022-07-23T04:48:26;23.90;99.00
24232;DHT22;12364;47.810;8.810;2022-07-23T04:50:54;23.90;99.10
24232;DHT22;12364;47.810;8.810;2022-07-23T04:53:21;23.80;99.00
24232;DHT22;12364;47.810;8.810;2022-07-23T04:55:48;23.70;99.30
24232;DHT22;12364;47.810;8.810;2022-07-23T04:58:15;23.60;99.70
24232;DHT22;12364;47.810;8.810;2022-07-23T05:00:42;23.60;99.80
24232;DHT22;12364;47.810;8.810;2022-07-23T05:03:09;23.70;99.90
24232;DHT22;12364;47.810;8.810;2022-07-23T05:05:36;23.70;99.90
24232;DHT22;12364;47.810;8.810;2022-07-23T05:08:03;23.80;99.90
24232;DHT22;12364;47.810;8.810;2022-07-23T05:10:30;23.80;99.90
24232;DHT22;12364;47.810;8.810;2022-07-23T05:12:57;23.90;99.90
24232;DHT22;12364;47.810;8.810;2022-07-23T05:15:24;23.90;99.80
24232;DHT22;12364;47.810;8.810;2022-07-23T05:17:51;24.00;99.50
24232;DHT22;12364;47.810;8.810;2022-07-23T05:20:18;23.90;99.00
24232;DHT22;12364;47.810;8.810;2022-07-23T05:22:45;23.90;98.10
24232;DHT22;12364;47.810;8.810;2022-07-23T05:25:12;23.90;98.20
24232;DHT22;12364;47.810;8.810;2022-07-23T05:27:39;23.90;98.80
24232;DHT22;12364;47.810;8.810;2022-07-23T05:30:06;23.90;98.90
24232;DHT22;12364;47.810;8.810;2022-07-23T05:32:34;23.90;98.50
24232;DHT22;12364;47.810;8.810;2022-07-23T05:35:01;23.80;99.10
24232;DHT22;12364;47.810;8.810;2022-07-23T05:37:28;23.80;98.90
24232;DHT22;12364;47.810;8.810;2022-07-23T05:39:55;23.80;99.50
24232;DHT22;12364;47.810;8.810;2022-07-23T05:42:22;23.90;99.20
24232;DHT22;12364;47.810;8.810;2022-07-23T05:44:49;23.90;99.30
24232;DHT22;12364;47.810;8.810;2022-07-23T05:47:16;23.90;99.40
24232;DHT22;12364;47.810;8.810;2022-07-23T05:49:44;24.00;99.60
24232;DHT22;12364;47.810;8.810;2022-07-23T05:52:11;24.00;99.30
24232;DHT22;12364;47.810;8.810;2022-07-23T05:54:38;23.90;98.40
24232;DHT22;12364;47.810;8.810;2022-07-23T05:57:05;23.70;99.10
24232;DHT22;12364;47.810;8.810;2022-07-23T05:59:32;23.40;99.50
24232;DHT22;12364;47.810;8.810;2022-07-23T06:01:59;23.20;99.90
24232;DHT22;12364;47.810;8.810;2022-07-23T06:04:27;23.10;99.90
24232;DHT22;12364;47.810;8.810;2022-07-23T06:06:54;23.00;99.90
24232;DHT22;12364;47.810;8.810;2022-07-23T06:09:21;23.10;99.90
24232;DHT22;12364;47.810;8.810;2022-07-23T06:11:48;23.20;99.90
24232;DHT22;12364;47.810;8.810;2022-07-23T06:14:15;23.30;99.90
24232;DHT22;12364;47.810;8.810;2022-07-23T06:16:42;23.40;99.90
24232;DHT22;12364;47.810;8.810;2022-07-23T06:19:09;23.40;99.90
24232;DHT22;12364;47.810;8.810;2022-07-23T06:21:36;23.30;99.90
24232;DHT22;12364;47.810;8.810;2022-07-23T06:24:12;23.20;99.90
24232;DHT22;12364;47.810;8.810;2022-07-23T06:26:40;23.10;99.90
24232;DHT22;12364;47.810;8.810;2022-07-23T06:29:07;23.10;99.90
24232;DHT22;12364;47.810;8.810;2022-07-23T06:31:34;23.20;99.90
24232;DHT22;12364;47.810;8.810;2022-07-23T06:34:01;23.30;99.90
24232;DHT22;12364;47.810;8.810;2022-07-23T06:36:28;23.40;99.90
24232;DHT22;12364;47.810;8.810;2022-07-23T06:38:55;23.50;99.90
24232;DHT22;12364;47.810;8.810;2022-07-23T06:41:23;23.60;99.90
24232;DHT22;12364;47.810;8.810;2022-07-23T06:43:50;23.60;99.90
24232;DHT22;12364;47.810;8.810;2022-07-23T06:46:17;23.60;99.90
24232;DHT22;12364;47.810;8.810;2022-07-23T06:48:45;23.60;99.90
24232;DHT22;12364;47.810;8.810;2022-07-23T06:51:13;23.60;99.90
24232;DHT22;12364;47.810;8.810;2022-07-23T06:53:40;23.80;99.90
24232;DHT22;12364;47.810;8.810;2022-07-23T06:56:07;23.90;99.90
24232;DHT22;12364;47.810;8.810;2022-07-23T06:58:34;23.90;99.90
24232;DHT22;12364;47.810;8.810;2022-07-23T07:01:01;24.00;99.90
24232;DHT22;12364;47.810;8.810;2022-07-23T07:03:29;24.00;99.90
24232;DHT22;12364;47.810;8.810;2022-07-23T07:05:56;24.00;99.90
24232;DHT22;12364;47.810;8.810;2022-07-23T07:08:24;24.00;99.90
24232;DHT22;12364;47.810;8.810;2022-07-23T07:10:51;24.10;99.90
24232;DHT22;12364;47.810;8.810;2022-07-23T07:13:18;24.10;99.90
24232;DHT22;12364;47.810;8.810;2022-07-23T07:15:45;24.20;99.90
24232;DHT22;12364;47.810;8.810;2022-07-23T07:18:12;24.20;99.90
24232;DHT22;12364;47.810;8.810;2022-07-23T07:20:39;24.20;99.90
24232;DHT22;12364;47.810;8.810;2022-07-23T07:23:06;24.30;99.90
24232;DHT22;12364;47.810;8.810;2022-07-23T07:25:34;24.30;99.90
24232;DHT22;12364;47.810;8.810;2022-07-23T07:28:01;24.50;99.90
24232;DHT22;12364;47.810;8.810;2022-07-23T07:30:28;24.50;99.90
24232;DHT22;12364;47.810;8.810;2022-07-23T07:33:00;24.60;99.90
24232;DHT22;12364;47.810;8.810;2022-07-23T07:35:27;24.60;99.90
24232;DHT22;12364;47.810;8.810;2022-07-23T07:37:54;24.70;99.90
24232;DHT22;12364;47.810;8.810;2022-07-23T07:40:21;24.70;99.90
24232;DHT22;12364;47.810;8.810;2022-07-23T07:42:49;24.70;99.90
24232;DHT22;12364;47.810;8.810;2022-07-23T07:45:17;24.80;99.90
24232;DHT22;12364;47.810;8.810;2022-07-23T07:47:44;24.80;99.90
24232;DHT22;12364;47.810;8.810;2022-07-23T07:50:11;24.80;99.90
24232;DHT22;12364;47.810;8.810;2022-07-23T07:52:38;24.80;99.90
24232;DHT22;12364;47.810;8.810;2022-07-23T07:55:06;24.80;99.90
24232;DHT22;12364;47.810;8.810;2022-07-23T07:57:35;24.80;99.90
24232;DHT22;12364;47.810;8.810;2022-07-23T08:00:03;24.80;99.90
24232;DHT22;12364;47.810;8.810;2022-07-23T08:02:46;24.80;99.90
24232;DHT22;12364;47.810;8.810;2022-07-23T08:05:18;24.90;99.90
24232;DHT22;12364;47.810;8.810;2022-07-23T08:07:52;24.90;99.90
24232;DHT22;12364;47.810;8.810;2022-07-23T08:10:20;25.00;99.90
24232;DHT22;12364;47.810;8.810;2022-07-23T08:12:51;25.00;99.90
24232;DHT22;12364;47.810;8.810;2022-07-23T08:15:20;25.00;99.80
24232;DHT22;12364;47.810;8.810;2022-07-23T08:17:48;25.00;99.90
24232;DHT22;12364;47.810;8.810;2022-07-23T08:20:16;24.90;99.60
24232;DHT22;12364;47.810;8.810;2022-07-23T08:22:51;24.90;99.90
24232;DHT22;12364;47.810;8.810;2022-07-23T08:25:37;24.90;99.90
24232;DHT22;12364;47.810;8.810;2022-07-23T08:28:05;24.90;99.50
24232;DHT22;12364;47.810;8.810;2022-07-23T08:30:33;24.80;99.30
24232;DHT22;12364;47.810;8.810;2022-07-23T08:35:34;24.70;99.90
24232;DHT22;12364;47.810;8.810;2022-07-23T08:38:05;24.80;99.90
24232;DHT22;12364;47.810;8.810;2022-07-23T08:40:35;24.90;99.90
24232;DHT22;12364;47.810;8.810;2022-07-23T08:43:10;25.00;99.90
24232;DHT22;12364;47.810;8.810;2022-07-23T08:45:38;25.10;99.90
24232;DHT22;12364;47.810;8.810;2022-07-23T08:48:13;25.30;99.90
24232;DHT22;12364;47.810;8.810;2022-07-23T08:50:43;25.30;99.90
24232;DHT22;12364;47.810;8.810;2022-07-23T08:53:11;25.40;98.90
24232;DHT22;12364;47.810;8.810;2022-07-23T08:55:39;25.30;98.50
24232;DHT22;12364;47.810;8.810;2022-07-23T08:58:06;25.20;98.30
24232;DHT22;12364;47.810;8.810;2022-07-23T09:00:33;25.10;98.80
24232;DHT22;12364;47.810;8.810;2022-07-23T09:03:00;25.00;99.30
24232;DHT22;12364;47.810;8.810;2022-07-23T09:05:27;25.10;99.00
24232;DHT22;12364;47.810;8.810;2022-07-23T09:10:47;25.20;98.60
24232;DHT22;12364;47.810;8.810;2022-07-23T09:18:37;25.60;98.30
24232;DHT22;12364;47.810;8.810;2022-07-23T09:21:18;25.60;98.70
24232;DHT22;12364;47.810;8.810;2022-07-23T09:23:47;25.70;98.30
24232;DHT22;12364;47.810;8.810;2022-07-23T09:26:22;25.80;97.90
24232;DHT22;12364;47.810;8.810;2022-07-23T09:28:51;25.70;98.10
24232;DHT22;12364;47.810;8.810;2022-07-23T09:31:18;25.70;98.40
24232;DHT22;12364;47.810;8.810;2022-07-23T09:33:46;25.70;98.10
24232;DHT22;12364;47.810;8.810;2022-07-23T09:36:13;25.70;98.30
24232;DHT22;12364;47.810;8.810;2022-07-23T09:38:49;25.70;98.90
24232;DHT22;12364;47.810;8.810;2022-07-23T09:41:16;25.70;98.20
24232;DHT22;12364;47.810;8.810;2022-07-23T09:43:43;25.70;97.80
24232;DHT22;12364;47.810;8.810;2022-07-23T09:46:21;25.70;98.10
24232;DHT22;12364;47.810;8.810;2022-07-23T09:48:50;25.70;97.90
24232;DHT22;12364;47.810;8.810;2022-07-23T09:51:18;25.70;98.20
24232;DHT22;12364;47.810;8.810;2022-07-23T09:54:03;25.60;98.00
24232;DHT22;12364;47.810;8.810;2022-07-23T09:56:31;25.60;98.20
24232;DHT22;12364;47.810;8.810;2022-07-23T09:58:59;25.70;98.30
24232;DHT22;12364;47.810;8.810;2022-07-23T10:01:34;25.60;98.90
24232;DHT22;12364;47.810;8.810;2022-07-23T10:04:02;25.60;98.80
24232;DHT22;12364;47.810;8.810;2022-07-23T10:06:30;25.50;98.90
24232;DHT22;12364;47.810;8.810;2022-07-23T10:08:58;25.50;99.10
24232;DHT22;12364;47.810;8.810;2022-07-23T10:11:25;25.40;99.20
24232;DHT22;12364;47.810;8.810;2022-07-23T10:13:53;25.50;99.10
24232;DHT22;12364;47.810;8.810;2022-07-23T10:16:25;25.60;99.00
24232;DHT22;12364;47.810;8.810;2022-07-23T10:18:53;25.60;98.80
24232;DHT22;12364;47.810;8.810;2022-07-23T10:34:38;26.00;96.50
24232;DHT22;12364;47.810;8.810;2022-07-23T10:37:16;25.80;96.60
24232;DHT22;12364;47.810;8.810;2022-07-23T10:42:36;26.00;97.00
24232;DHT22;12364;47.810;8.810;2022-07-23T10:47:49;26.30;96.80
24232;DHT22;12364;47.810;8.810;2022-07-23T10:50:25;26.40;97.50
24232;DHT22;12364;47.810;8.810;2022-07-23T10:58:02;26.60;96.80
24232;DHT22;12364;47.810;8.810;2022-07-23T11:00:29;26.60;96.90
24232;DHT22;12364;47.810;8.810;2022-07-23T11:03:00;26.60;96.80
24232;DHT22;12364;47.810;8.810;2022-07-23T11:05:41;26.60;96.80
24232;DHT22;12364;47.810;8.810;2022-07-23T11:08:15;26.70;96.70
24232;DHT22;12364;47.810;8.810;2022-07-23T11:10:44;26.70;96.70
24232;DHT22;12364;47.810;8.810;2022-07-23T11:21:48;26.90;96.30
24232;DHT22;12364;47.810;8.810;2022-07-23T11:32:01;27.50;96.00
24232;DHT22;12364;47.810;8.810;2022-07-23T11:34:35;27.10;96.20
24232;DHT22;12364;47.810;8.810;2022-07-23T11:37:03;27.20;96.40
24232;DHT22;12364;47.810;8.810;2022-07-23T11:39:31;27.20;96.50
24232;DHT22;12364;47.810;8.810;2022-07-23T11:41:58;27.30;95.80
24232;DHT22;12364;47.810;8.810;2022-07-23T11:47:08;27.40;95.80
24232;DHT22;12364;47.810;8.810;2022-07-23T11:49:36;27.40;95.20
24232;DHT22;12364;47.810;8.810;2022-07-23T11:54:31;27.50;95.30
24232;DHT22;12364;47.810;8.810;2022-07-23T11:57:05;27.60;95.70
24232;DHT22;12364;47.810;8.810;2022-07-23T11:59:33;27.60;95.40
24232;DHT22;12364;47.810;8.810;2022-07-23T12:02:01;27.60;95.50
24232;DHT22;12364;47.810;8.810;2022-07-23T12:07:22;27.70;95.20
24232;DHT22;12364;47.810;8.810;2022-07-23T12:09:49;27.80;94.80
24232;DHT22;12364;47.810;8.810;2022-07-23T12:12:16;27.80;94.70
24232;DHT22;12364;47.810;8.810;2022-07-23T12:14:50;27.90;94.40
24232;DHT22;12364;47.810;8.810;2022-07-23T12:17:17;28.00;94.70
24232;DHT22;12364;47.810;8.810;2022-07-23T12:19:44;28.00;94.60
24232;DHT22;12364;47.810;8.810;2022-07-23T12:22:12;28.00;94.60
24232;DHT22;12364;47.810;8.810;2022-07-23T12:27:20;28.10;94.60
24232;DHT22;12364;47.810;8.810;2022-07-23T12:29:48;28.10;94.60
24232;DHT22;12364;47.810;8.810;2022-07-23T12:32:19;28.20;94.70
24232;DHT22;12364;47.810;8.810;2022-07-23T12:34:50;28.20;94.40
24232;DHT22;12364;47.810;8.810;2022-07-23T12:37:27;28.20;93.90
24232;DHT22;12364;47.810;8.810;2022-07-23T12:39:55;28.20;93.90
24232;DHT22;12364;47.810;8.810;2022-07-23T12:42:22;28.20;93.80
24232;DHT22;12364;47.810;8.810;2022-07-23T12:45:10;28.30;94.00
24232;DHT22;12364;47.810;8.810;2022-07-23T12:47:51;28.30;93.90
24232;DHT22;12364;47.810;8.810;2022-07-23T12:50:31;28.30;93.70
24232;DHT22;12364;47.810;8.810;2022-07-23T12:53:05;28.30;93.70
24232;DHT22;12364;47.810;8.810;2022-07-23T12:55:39;28.30;94.20
24232;DHT22;12364;47.810;8.810;2022-07-23T12:58:26;28.40;93.50
24232;DHT22;12364;47.810;8.810;2022-07-23T13:01:04;28.40;93.80
24232;DHT22;12364;47.810;8.810;2022-07-23T13:03:35;28.50;94.10
24232;DHT22;12364;47.810;8.810;2022-07-23T13:06:06;28.50;93.80
24232;DHT22;12364;47.810;8.810;2022-07-23T13:08:33;28.60;94.00
24232;DHT22;12364;47.810;8.810;2022-07-23T13:11:01;28.60;93.90
24232;DHT22;12364;47.810;8.810;2022-07-23T13:13:29;28.70;93.50
24232;DHT22;12364;47.810;8.810;2022-07-23T13:15:57;28.80;93.40
24232;DHT22;12364;47.810;8.810;2022-07-23T13:18:25;28.90;93.40
24232;DHT22;12364;47.810;8.810;2022-07-23T13:20:52;28.90;93.40
24232;DHT22;12364;47.810;8.810;2022-07-23T13:23:20;28.90;93.10
24232;DHT22;12364;47.810;8.810;2022-07-23T13:25:47;29.00;92.50
24232;DHT22;12364;47.810;8.810;2022-07-23T13:28:16;29.00;92.70
24232;DHT22;12364;47.810;8.810;2022-07-23T13:30:43;29.00;92.70
24232;DHT22;12364;47.810;8.810;2022-07-23T13:33:10;29.00;92.60
24232;DHT22;12364;47.810;8.810;2022-07-23T13:35:38;29.00;92.30
24232;DHT22;12364;47.810;8.810;2022-07-23T13:38:05;29.10;91.70
24232;DHT22;12364;47.810;8.810;2022-07-23T13:40:36;29.20;92.00
24232;DHT22;12364;47.810;8.810;2022-07-23T13:43:06;29.20;92.10
24232;DHT22;12364;47.810;8.810;2022-07-23T13:45:34;29.30;92.50
24232;DHT22;12364;47.810;8.810;2022-07-23T13:48:02;29.40;92.60
24232;DHT22;12364;47.810;8.810;2022-07-23T13:50:33;29.40;92.70
24232;DHT22;12364;47.810;8.810;2022-07-23T13:53:01;29.40;92.80
24232;DHT22;12364;47.810;8.810;2022-07-23T13:55:30;29.50;92.60
24232;DHT22;12364;47.810;8.810;2022-07-23T13:57:58;29.50;92.60
24232;DHT22;12364;47.810;8.810;2022-07-23T14:00:26;29.50;92.90
24232;DHT22;12364;47.810;8.810;2022-07-23T14:03:13;29.50;91.90
24232;DHT22;12364;47.810;8.810;2022-07-23T14:05:40;29.60;92.50
24232;DHT22;12364;47.810;8.810;2022-07-23T14:08:10;29.60;91.90
24232;DHT22;12364;47.810;8.810;2022-07-23T14:10:40;29.70;91.20
24232;DHT22;12364;47.810;8.810;2022-07-23T14:13:09;29.70;92.10
24232;DHT22;12364;47.810;8.810;2022-07-23T14:15:36;29.70;92.30
24232;DHT22;12364;47.810;8.810;2022-07-23T14:18:05;29.70;91.90
24232;DHT22;12364;47.810;8.810;2022-07-23T14:20:32;29.70;91.70
24232;DHT22;12364;47.810;8.810;2022-07-23T14:22:59;29.80;91.50
24232;DHT22;12364;47.810;8.810;2022-07-23T14:25:31;29.80;91.50
24232;DHT22;12364;47.810;8.810;2022-07-23T14:27:59;29.90;91.50
24232;DHT22;12364;47.810;8.810;2022-07-23T14:30:26;29.90;91.40
24232;DHT22;12364;47.810;8.810;2022-07-23T14:33:00;29.90;91.20
24232;DHT22;12364;47.810;8.810;2022-07-23T14:35:27;30.00;91.20
24232;DHT22;12364;47.810;8.810;2022-07-23T14:37:54;30.00;91.20
24232;DHT22;12364;47.810;8.810;2022-07-23T14:40:22;30.00;91.20
24232;DHT22;12364;47.810;8.810;2022-07-23T14:42:49;30.10;91.30
24232;DHT22;12364;47.810;8.810;2022-07-23T14:45:16;30.00;91.20
24232;DHT22;12364;47.810;8.810;2022-07-23T14:47:46;30.10;91.30
24232;DHT22;12364;47.810;8.810;2022-07-23T14:50:13;30.10;90.40
24232;DHT22;12364;47.810;8.810;2022-07-23T14:52:41;30.20;90.60
24232;DHT22;12364;47.810;8.810;2022-07-23T14:55:08;30.10;90.70
24232;DHT22;12364;47.810;8.810;2022-07-23T14:57:35;30.10;90.70
24232;DHT22;12364;47.810;8.810;2022-07-23T15:00:06;30.10;90.70
24232;DHT22;12364;47.810;8.810;2022-07-23T15:02:35;30.10;91.10
24232;DHT22;12364;47.810;8.810;2022-07-23T15:05:02;30.10;90.90
24232;DHT22;12364;47.810;8.810;2022-07-23T15:07:33;30.10;90.60
24232;DHT22;12364;47.810;8.810;2022-07-23T15:10:00;30.10;90.60
24232;DHT22;12364;47.810;8.810;2022-07-23T15:12:28;30.20;90.60
24232;DHT22;12364;47.810;8.810;2022-07-23T15:14:55;30.20;90.50
24232;DHT22;12364;47.810;8.810;2022-07-23T15:17:22;30.20;91.00
24232;DHT22;12364;47.810;8.810;2022-07-23T15:19:52;30.30;90.70
24232;DHT22;12364;47.810;8.810;2022-07-23T15:22:20;30.30;90.60
24232;DHT22;12364;47.810;8.810;2022-07-23T15:24:47;30.30;90.40
24232;DHT22;12364;47.810;8.810;2022-07-23T15:27:15;30.20;90.60
24232;DHT22;12364;47.810;8.810;2022-07-23T15:29:46;30.20;90.80
24232;DHT22;12364;47.810;8.810;2022-07-23T15:32:13;30.20;90.40
24232;DHT22;12364;47.810;8.810;2022-07-23T15:34:40;30.20;90.40
24232;DHT22;12364;47.810;8.810;2022-07-23T15:37:07;30.10;90.70
24232;DHT22;12364;47.810;8.810;2022-07-23T15:39:40;30.10;90.30
24232;DHT22;12364;47.810;8.810;2022-07-23T15:42:07;30.10;90.40
24232;DHT22;12364;47.810;8.810;2022-07-23T15:44:41;30.00;90.50
24232;DHT22;12364;47.810;8.810;2022-07-23T15:47:13;30.00;90.70
24232;DHT22;12364;47.810;8.810;2022-07-23T15:49:40;30.00;90.70
24232;DHT22;12364;47.810;8.810;2022-07-23T15:52:07;30.00;90.60
24232;DHT22;12364;47.810;8.810;2022-07-23T15:54:37;30.00;90.30
24232;DHT22;12364;47.810;8.810;2022-07-23T15:57:06;30.10;90.20
24232;DHT22;12364;47.810;8.810;2022-07-23T15:59:34;30.00;90.20
24232;DHT22;12364;47.810;8.810;2022-07-23T16:02:02;30.10;90.00
24232;DHT22;12364;47.810;8.810;2022-07-23T16:04:29;30.10;90.20
24232;DHT22;12364;47.810;8.810;2022-07-23T16:06:57;30.10;90.20
24232;DHT22;12364;47.810;8.810;2022-07-23T16:09:24;30.10;89.20
24232;DHT22;12364;47.810;8.810;2022-07-23T16:11:51;30.10;89.40
24232;DHT22;12364;47.810;8.810;2022-07-23T16:14:20;30.10;89.70
24232;DHT22;12364;47.810;8.810;2022-07-23T16:16:47;30.00;89.20
24232;DHT22;12364;47.810;8.810;2022-07-23T16:19:14;30.10;90.00
24232;DHT22;12364;47.810;8.810;2022-07-23T16:21:42;30.00;89.10
24232;DHT22;12364;47.810;8.810;2022-07-23T16:24:09;30.00;89.70
24232;DHT22;12364;47.810;8.810;2022-07-23T16:26:36;30.10;90.20
24232;DHT22;12364;47.810;8.810;2022-07-23T16:29:03;30.10;90.00
24232;DHT22;12364;47.810;8.810;2022-07-23T16:31:31;30.10;90.00
24232;DHT22;12364;47.810;8.810;2022-07-23T16:33:58;30.10;89.50
24232;DHT22;12364;47.810;8.810;2022-07-23T16:36:25;30.10;89.50
24232;DHT22;12364;47.810;8.810;2022-07-23T16:38:52;30.10;89.30
24232;DHT22;12364;47.810;8.810;2022-07-23T16:41:20;30.10;89.10
24232;DHT22;12364;47.810;8.810;2022-07-23T16:43:47;30.10;88.90
24232;DHT22;12364;47.810;8.810;2022-07-23T16:46:14;30.10;89.10
24232;DHT22;12364;47.810;8.810;2022-07-23T16:48:41;30.10;88.70
24232;DHT22;12364;47.810;8.810;2022-07-23T16:51:08;30.10;88.60
24232;DHT22;12364;47.810;8.810;2022-07-23T16:53:35;30.00;88.20
24232;DHT22;12364;47.810;8.810;2022-07-23T16:56:03;30.10;87.70
24232;DHT22;12364;47.810;8.810;2022-07-23T16:58:32;30.00;89.50
24232;DHT22;12364;47.810;8.810;2022-07-23T17:00:59;29.90;89.40
24232;DHT22;12364;47.810;8.810;2022-07-23T17:03:27;29.90;90.20
24232;DHT22;12364;47.810;8.810;2022-07-23T17:05:55;30.00;90.10
24232;DHT22;12364;47.810;8.810;2022-07-23T17:08:22;29.90;90.00
24232;DHT22;12364;47.810;8.810;2022-07-23T17:10:54;29.90;90.30
24232;DHT22;12364;47.810;8.810;2022-07-23T17:13:21;29.80;90.60
24232;DHT22;12364;47.810;8.810;2022-07-23T17:15:48;29.80;89.90
24232;DHT22;12364;47.810;8.810;2022-07-23T17:18:15;29.80;90.10
24232;DHT22;12364;47.810;8.810;2022-07-23T17:20:42;29.70;90.20
24232;DHT22;12364;47.810;8.810;2022-07-23T17:23:09;29.70;90.80
24232;DHT22;12364;47.810;8.810;2022-07-23T17:25:38;29.70;90.70
24232;DHT22;12364;47.810;8.810;2022-07-23T17:28:06;29.70;90.90
24232;DHT22;12364;47.810;8.810;2022-07-23T17:30:33;29.70;90.90
24232;DHT22;12364;47.810;8.810;2022-07-23T17:33:00;29.60;90.90
24232;DHT22;12364;47.810;8.810;2022-07-23T17:35:33;29.70;91.10
24232;DHT22;12364;47.810;8.810;2022-07-23T17:38:00;29.70;91.00
24232;DHT22;12364;47.810;8.810;2022-07-23T17:40:27;29.60;90.80
24232;DHT22;12364;47.810;8.810;2022-07-23T17:42:54;29.70;90.90
24232;DHT22;12364;47.810;8.810;2022-07-23T17:45:21;29.70;90.90
24232;DHT22;12364;47.810;8.810;2022-07-23T17:47:48;29.70;91.10
24232;DHT22;12364;47.810;8.810;2022-07-23T17:50:15;29.80;91.00
24232;DHT22;12364;47.810;8.810;2022-07-23T17:52:46;29.80;90.90
24232;DHT22;12364;47.810;8.810;2022-07-23T17:55:14;29.80;91.20
24232;DHT22;12364;47.810;8.810;2022-07-23T17:57:48;29.70;91.30
24232;DHT22;12364;47.810;8.810;2022-07-23T18:00:16;29.70;91.20
24232;DHT22;12364;47.810;8.810;2022-07-23T18:02:44;29.60;91.20
24232;DHT22;12364;47.810;8.810;2022-07-23T18:05:11;29.60;91.20
24232;DHT22;12364;47.810;8.810;2022-07-23T18:07:38;29.40;91.50
24232;DHT22;12364;47.810;8.810;2022-07-23T18:10:05;29.40;91.60
24232;DHT22;12364;47.810;8.810;2022-07-23T18:12:33;29.40;91.60
24232;DHT22;12364;47.810;8.810;2022-07-23T18:15:00;29.40;91.70
24232;DHT22;12364;47.810;8.810;2022-07-23T18:17:33;29.40;91.70
24232;DHT22;12364;47.810;8.810;2022-07-23T18:20:00;29.40;91.70
24232;DHT22;12364;47.810;8.810;2022-07-23T18:22:27;29.40;91.80
24232;DHT22;12364;47.810;8.810;2022-07-23T18:24:54;29.50;92.00
24232;DHT22;12364;47.810;8.810;2022-07-23T18:27:21;29.50;91.90
24232;DHT22;12364;47.810;8.810;2022-07-23T18:29:48;29.40;91.90
24232;DHT22;12364;47.810;8.810;2022-07-23T18:32:15;29.40;92.10
24232;DHT22;12364;47.810;8.810;2022-07-23T18:34:43;29.40;92.20
24232;DHT22;12364;47.810;8.810;2022-07-23T18:37:10;29.40;92.00
24232;DHT22;12364;47.810;8.810;2022-07-23T18:39:57;29.40;91.90
24232;DHT22;12364;47.810;8.810;2022-07-23T18:42:24;29.30;91.90
24232;DHT22;12364;47.810;8.810;2022-07-23T18:44:51;29.30;92.10
24232;DHT22;12364;47.810;8.810;2022-07-23T18:47:18;29.30;92.10
24232;DHT22;12364;47.810;8.810;2022-07-23T18:49:45;29.30;92.10
24232;DHT22;12364;47.810;8.810;2022-07-23T18:52:12;29.30;92.10
24232;DHT22;12364;47.810;8.810;2022-07-23T18:54:39;29.20;92.10
24232;DHT22;12364;47.810;8.810;2022-07-23T18:57:06;29.20;91.70
24232;DHT22;12364;47.810;8.810;2022-07-23T18:59:36;29.20;91.70
24232;DHT22;12364;47.810;8.810;2022-07-23T19:02:03;29.20;92.30
24232;DHT22;12364;47.810;8.810;2022-07-23T19:04:31;29.10;92.20
24232;DHT22;12364;47.810;8.810;2022-07-23T19:06:58;29.10;92.30
24232;DHT22;12364;47.810;8.810;2022-07-23T19:09:25;29.00;92.20
24232;DHT22;12364;47.810;8.810;2022-07-23T19:12:00;29.00;92.10
24232;DHT22;12364;47.810;8.810;2022-07-23T19:14:27;29.00;92.50
24232;DHT22;12364;47.810;8.810;2022-07-23T19:16:54;28.90;92.80
24232;DHT22;12364;47.810;8.810;2022-07-23T19:19:21;28.80;92.90
24232;DHT22;12364;47.810;8.810;2022-07-23T19:21:48;28.70;93.40
24232;DHT22;12364;47.810;8.810;2022-07-23T19:24:16;28.60;92.70
24232;DHT22;12364;47.810;8.810;2022-07-23T19:26:43;28.60;93.00
24232;DHT22;12364;47.810;8.810;2022-07-23T19:29:10;28.50;93.10
24232;DHT22;12364;47.810;8.810;2022-07-23T19:31:37;28.50;93.10
24232;DHT22;12364;47.810;8.810;2022-07-23T19:34:04;28.50;93.10
24232;DHT22;12364;47.810;8.810;2022-07-23T19:36:31;28.50;93.10
24232;DHT22;12364;47.810;8.810;2022-07-23T19:38:58;28.50;92.90
24232;DHT22;12364;47.810;8.810;2022-07-23T19:41:25;28.50;92.40
24232;DHT22;12364;47.810;8.810;2022-07-23T19:43:52;28.40;91.70
24232;DHT22;12364;47.810;8.810;2022-07-23T19:46:19;28.40;91.00
24232;DHT22;12364;47.810;8.810;2022-07-23T19:48:48;28.30;90.90
24232;DHT22;12364;47.810;8.810;2022-07-23T19:51:16;28.30;89.60
24232;DHT22;12364;47.810;8.810;2022-07-23T19:53:43;28.20;90.30
24232;DHT22;12364;47.810;8.810;2022-07-23T19:56:10;28.20;90.10
24232;DHT22;12364;47.810;8.810;2022-07-23T19:58:37;28.20;90.00
24232;DHT22;12364;47.810;8.810;2022-07-23T20:01:04;28.20;90.10
24232;DHT22;12364;47.810;8.810;2022-07-23T20:03:31;28.10;89.60
24232;DHT22;12364;47.810;8.810;2022-07-23T20:05:58;28.20;90.30
24232;DHT22;12364;47.810;8.810;2022-07-23T20:08:25;28.20;90.10
24232;DHT22;12364;47.810;8.810;2022-07-23T20:10:52;28.20;90.00
24232;DHT22;12364;47.810;8.810;2022-07-23T20:13:19;28.10;90.20
24232;DHT22;12364;47.810;8.810;2022-07-23T20:15:46;28.10;90.50
24232;DHT22;12364;47.810;8.810;2022-07-23T20:18:15;28.10;90.80
24232;DHT22;12364;47.810;8.810;2022-07-23T20:20:43;28.10;90.50
24232;DHT22;12364;47.810;8.810;2022-07-23T20:23:10;28.10;90.50
24232;DHT22;12364;47.810;8.810;2022-07-23T20:25:37;28.00;90.60
24232;DHT22;12364;47.810;8.810;2022-07-23T20:28:06;28.00;90.60
24232;DHT22;12364;47.810;8.810;2022-07-23T20:30:33;28.00;90.70
24232;DHT22;12364;47.810;8.810;2022-07-23T20:33:00;28.00;91.20
24232;DHT22;12364;47.810;8.810;2022-07-23T20:35:27;28.00;90.70
24232;DHT22;12364;47.810;8.810;2022-07-23T20:37:55;27.90;90.80
24232;DHT22;12364;47.810;8.810;2022-07-23T20:40:22;27.90;91.00
24232;DHT22;12364;47.810;8.810;2022-07-23T20:42:49;27.90;91.20
24232;DHT22;12364;47.810;8.810;2022-07-23T20:45:16;27.80;91.10
24232;DHT22;12364;47.810;8.810;2022-07-23T20:47:43;27.80;91.50
24232;DHT22;12364;47.810;8.810;2022-07-23T20:50:10;27.70;91.50
24232;DHT22;12364;47.810;8.810;2022-07-23T20:52:41;27.80;91.60
24232;DHT22;12364;47.810;8.810;2022-07-23T20:55:09;27.70;92.00
24232;DHT22;12364;47.810;8.810;2022-07-23T20:57:36;27.70;91.70
24232;DHT22;12364;47.810;8.810;2022-07-23T21:00:04;27.70;90.70
24232;DHT22;12364;47.810;8.810;2022-07-23T21:02:31;27.60;90.40
24232;DHT22;12364;47.810;8.810;2022-07-23T21:04:58;27.60;90.20
24232;DHT22;12364;47.810;8.810;2022-07-23T21:07:25;27.50;89.60
24232;DHT22;12364;47.810;8.810;2022-07-23T21:09:52;27.40;89.90